Louisa, VA

7:05 AM EST on February 09, 2016 (GMT -0500)
Louisa - Northside | | Change Station
CLOSE
Current Station
Personal Weather Station
Location: Louisa, VA
Elevation: 371 ft
Nearby Weather Stations

Elev 371 ft 38.04 °N, 78.01 °W | Updated 3 minutes ago

Fog
Fog
35.4 °F
Feels Like 35 °F
N
0.0
Wind Variable Wind from East
Gusts 12.0 mph

Today
High -- | Low -- °F
--% Chance of Precip.
Yesterday
High -- | Low -- °F
Precip. -- in
Pressure 29.55 in
Visibility 1.8 miles
Clouds Mostly Cloudy 400 ft
Mostly Cloudy 5000 ft
Overcast 6500 ft
Windchill 35 °F
Dew Point 33 °F
Humidity 92%
Rainfall 0.00 in
Snow Depth Not available.
7:09 AM 5:43 PM
New Moon, 1% visible
METAR KLKU 091155Z AUTO 00000KT 1 3/4SM BR BKN004 BKN050 OVC065 02/01 A2955 RMK AO2
Pressure 29.55 in
Visibility 1.8 miles
Clouds Mostly Cloudy 400 ft
Mostly Cloudy 5000 ft
Overcast 6500 ft
Windchill 35 °F
Dew Point 33 °F
Humidity 92%
Rainfall 0.00 in
Snow Depth Not available.
7:09 AM 5:43 PM
New Moon, 1% visible
METAR KLKU 091155Z AUTO 00000KT 1 3/4SM BR BKN004 BKN050 OVC065 02/01 A2955 RMK AO2

10-Day Weather Forecast

Almanac

Astronomy

Feb. 09, 2016 Rise Set
Actual Time
Civil Twilight
Nautical Twilight
Astronomical Twilight
Moon
Length of Visible Light
Length of Day
Tomorrow will be .
, % of the Moon is Illuminated

Today's Extremes

State Highs State Lows

Community

WunderPhotos

Upload Photos

1,891,565 photos uploaded!

WunderBlog® & News

Nearby

Air Quality

  Air Quality AQ Index Pollutant
Not available.

Snow Depth

Station Depth Elevation

Earthquake Activity

City Distance Mag. Time & Date
Minimum magnitude displayed is 2.5.

Coastal Water Temperatures

Place Temperature

Stations

Nearby Weather Stations

Station Location Temp. Windchill Dew Point Humidity Wind Precip. Elev Updated Type
                   

Watches & Warnings

There are currently no watches in effect.